Terminal Aerodrome Forecast
Issued by NWS

Home | Current Version | Previous Version | Text Only | Print | Product List | Glossary On
Versions: 1 2 3 4 5 6 7 8 9 10 11 12 13 14 15 16 17
394
FTUS41 KBGM 271134
TAFRME
TAF
KRME 271134Z 2712/2812 VRB03KT P6SM BKN035
     FM271500 VRB03KT P6SM BKN050
     FM280100 00000KT P6SM SCT060=

USA.gov is the U.S. government's official web portal to all federal, state and local government web resources and services.